createdAt,value
2023-04-26T00:00:45.917Z,4.40
2023-04-26T00:04:52.266Z,4.30
2023-04-26T00:08:56.250Z,4.40
2023-04-26T00:13:00.953Z,4.60
2023-04-26T00:17:04.526Z,4.70
2023-04-26T00:21:08.019Z,4.90
2023-04-26T00:25:12.688Z,4.90
2023-04-26T00:29:17.367Z,5.00
2023-04-26T00:33:20.809Z,4.90
2023-04-26T00:37:24.979Z,4.80
2023-04-26T00:41:28.350Z,4.70
2023-04-26T00:45:32.967Z,4.60
2023-04-26T00:49:36.441Z,4.30
2023-04-26T00:53:39.812Z,4.20
2023-04-26T00:57:43.131Z,4.10
2023-04-26T01:01:48.865Z,4.10
2023-04-26T01:05:53.728Z,4.00
2023-04-26T01:09:57.759Z,4.00
2023-04-26T01:14:00.974Z,3.90
2023-04-26T01:18:06.075Z,3.80
2023-04-26T01:22:09.311Z,3.80
2023-04-26T01:26:14.105Z,3.70
2023-04-26T01:30:17.307Z,3.70
2023-04-26T01:34:21.048Z,3.60
2023-04-26T01:38:24.236Z,3.70
2023-04-26T01:42:28.956Z,3.60
2023-04-26T01:46:32.377Z,3.40
2023-04-26T01:50:35.591Z,3.50
2023-04-26T01:54:39.015Z,3.40
2023-04-26T01:58:43.532Z,3.30
2023-04-26T02:02:46.894Z,3.20
2023-04-26T02:06:50.137Z,3.20
2023-04-26T02:10:53.390Z,3.10
2023-04-26T02:14:58.198Z,3.10
2023-04-26T02:19:01.370Z,3.10
2023-04-26T02:23:04.981Z,3.00
2023-04-26T02:27:08.178Z,3.00
2023-04-26T02:31:12.862Z,3.10
2023-04-26T02:35:16.240Z,3.10
2023-04-26T02:39:19.666Z,3.20
2023-04-26T02:43:22.964Z,3.20
2023-04-26T02:47:27.570Z,3.10
2023-04-26T02:51:30.945Z,3.00
2023-04-26T02:55:34.134Z,2.90
2023-04-26T02:59:37.405Z,2.70
2023-04-26T03:03:42.429Z,2.70
2023-04-26T03:07:45.836Z,2.60
2023-04-26T03:11:50.272Z,2.60
2023-04-26T03:15:53.804Z,2.50
2023-04-26T03:19:59.534Z,2.50
2023-04-26T03:24:04.585Z,2.50
2023-04-26T03:28:07.904Z,2.50
2023-04-26T03:32:11.495Z,2.50
2023-04-26T03:36:16.110Z,2.40
2023-04-26T03:40:19.637Z,2.40
2023-04-26T03:44:22.924Z,2.50
2023-04-26T03:48:26.529Z,2.50
2023-04-26T03:52:31.024Z,2.60
2023-04-26T03:56:34.318Z,2.60
2023-04-26T04:00:39.275Z,2.70
2023-04-26T04:04:42.656Z,2.80
2023-04-26T04:08:47.274Z,3.00
2023-04-26T04:12:50.895Z,3.20
2023-04-26T04:16:54.188Z,3.20
2023-04-26T04:20:57.420Z,3.20
2023-04-26T04:25:04.769Z,3.30
2023-04-26T04:29:09.657Z,3.40
2023-04-26T04:33:13.341Z,3.50
2023-04-26T04:37:17.194Z,3.70
2023-04-26T04:41:22.384Z,3.90
2023-04-26T04:45:25.725Z,4.00
2023-04-26T04:49:29.097Z,4.20
2023-04-26T04:53:33.339Z,4.50
2023-04-26T04:57:42.717Z,4.70
2023-04-26T05:01:46.617Z,4.90
2023-04-26T05:05:51.263Z,4.90
2023-04-26T05:09:54.608Z,5.00
2023-04-26T05:13:59.789Z,5.30
2023-04-26T05:18:03.062Z,5.50
2023-04-26T05:22:06.571Z,5.80
2023-04-26T05:26:14.653Z,5.90
2023-04-26T05:30:19.534Z,6.10
2023-04-26T05:34:22.798Z,6.50
2023-04-26T05:38:26.501Z,6.50
2023-04-26T05:42:35.689Z,7.00
2023-04-26T05:46:40.584Z,7.60
2023-04-26T05:50:44.106Z,8.00
2023-04-26T05:54:47.667Z,8.40
2023-04-26T05:58:50.853Z,8.50
2023-04-26T06:02:55.735Z,8.60
2023-04-26T06:06:59.149Z,8.50
2023-04-26T06:11:02.633Z,8.40
2023-04-26T06:15:08.430Z,8.30
2023-04-26T06:19:13.184Z,8.20
2023-04-26T06:23:17.355Z,7.90
2023-04-26T06:27:22.153Z,7.80
2023-04-26T06:31:25.569Z,7.90
2023-04-26T06:35:31.407Z,8.10
2023-04-26T06:39:34.674Z,8.60
2023-04-26T06:43:37.918Z,8.70
2023-04-26T06:47:41.324Z,9.00
2023-04-26T06:51:46.244Z,9.20
2023-04-26T06:55:49.496Z,9.40
2023-04-26T06:59:52.684Z,9.40
2023-04-26T07:03:56.787Z,9.50
2023-04-26T07:08:02.017Z,9.70
2023-04-26T07:12:06.111Z,9.70
2023-04-26T07:16:09.592Z,10.30
2023-04-26T07:20:15.717Z,10.90
2023-04-26T07:24:20.804Z,11.30
2023-04-26T07:28:24.025Z,11.30
2023-04-26T07:32:27.384Z,11.30
2023-04-26T07:36:31.649Z,11.40
2023-04-26T07:40:36.545Z,11.30
2023-04-26T07:44:39.878Z,11.50
2023-04-26T07:48:43.058Z,11.60
2023-04-26T07:52:46.219Z,11.20
2023-04-26T07:56:51.124Z,11.50
2023-04-26T08:00:55.232Z,11.60
2023-04-26T08:04:58.744Z,11.50
2023-04-26T08:09:02.140Z,11.60
2023-04-26T08:13:06.865Z,11.70
2023-04-26T08:17:11.513Z,12.00
2023-04-26T08:21:15.011Z,12.30
2023-04-26T08:25:18.377Z,12.30
2023-04-26T08:29:24.086Z,12.00
2023-04-26T08:33:28.525Z,12.10
2023-04-26T08:37:32.003Z,12.40
2023-04-26T08:41:44.299Z,12.30
2023-04-26T08:45:49.340Z,12.30
2023-04-26T08:49:59.668Z,12.00
2023-04-26T08:54:08.065Z,12.40
2023-04-26T08:58:12.879Z,13.60
2023-04-26T09:02:20.552Z,13.30
2023-04-26T09:06:28.287Z,13.20
2023-04-26T09:10:32.604Z,16.00
2023-04-26T09:14:36.242Z,17.10
2023-04-26T09:18:52.166Z,17.90
2023-04-26T09:23:05.192Z,17.30
2023-04-26T09:27:08.406Z,18.60
2023-04-26T09:31:11.725Z,17.90
2023-04-26T09:35:30.808Z,17.60
2023-04-26T09:39:37.279Z,17.30
2023-04-26T09:43:41.346Z,20.00
2023-04-26T09:47:44.842Z,21.40
2023-04-26T09:52:06.226Z,20.60
2023-04-26T09:56:10.706Z,18.60
2023-04-26T10:00:17.710Z,18.10
2023-04-26T10:04:21.112Z,18.20
2023-04-26T10:08:26.417Z,17.30
2023-04-26T10:12:30.579Z,19.40
2023-04-26T10:16:34.290Z,20.70
2023-04-26T10:20:43.144Z,22.40
2023-04-26T10:24:49.813Z,23.50
2023-04-26T10:29:02.021Z,20.40
2023-04-26T10:33:15.294Z,18.60
2023-04-26T10:37:18.658Z,17.70
2023-04-26T10:41:40.138Z,16.30
2023-04-26T10:45:44.622Z,15.70
2023-04-26T10:49:48.697Z,17.20
2023-04-26T10:54:02.328Z,17.90
2023-04-26T10:58:27.737Z,17.90
2023-04-26T11:02:46.817Z,16.10
2023-04-26T11:06:51.686Z,17.00
2023-04-26T11:11:06.784Z,17.80
2023-04-26T11:15:14.290Z,18.10
2023-04-26T11:19:17.755Z,17.50
2023-04-26T11:23:21.323Z,17.10
2023-04-26T11:27:29.418Z,16.50
2023-04-26T11:31:34.114Z,16.60
2023-04-26T11:35:37.791Z,16.30
2023-04-26T11:39:41.039Z,15.80
2023-04-26T11:43:44.416Z,15.50
2023-04-26T11:47:49.573Z,15.70
2023-04-26T11:51:53.057Z,18.50
2023-04-26T11:55:56.253Z,21.10
2023-04-26T12:00:11.532Z,21.30
2023-04-26T12:04:16.311Z,23.70
2023-04-26T12:08:19.586Z,23.70
2023-04-26T12:12:25.341Z,23.90
2023-04-26T12:16:28.830Z,22.40
2023-04-26T12:20:35.847Z,22.60
2023-04-26T12:24:39.655Z,23.70
2023-04-26T12:28:42.894Z,22.10
2023-04-26T12:32:46.445Z,21.70
2023-04-26T12:36:51.422Z,21.10
2023-04-26T12:40:54.720Z,22.20
2023-04-26T12:44:58.170Z,22.20
2023-04-26T12:49:01.404Z,21.00
2023-04-26T12:53:06.250Z,20.30
2023-04-26T12:57:10.281Z,19.70
2023-04-26T13:01:14.997Z,18.50
2023-04-26T13:05:18.437Z,17.80
2023-04-26T13:09:23.085Z,18.00
2023-04-26T13:13:35.899Z,18.00
2023-04-26T13:17:46.345Z,17.80
2023-04-26T13:21:49.692Z,17.00
2023-04-26T13:25:54.304Z,17.00
2023-04-26T13:29:58.677Z,16.70
2023-04-26T13:34:03.137Z,17.50
2023-04-26T13:38:06.530Z,18.00
2023-04-26T13:42:11.258Z,18.40
2023-04-26T13:46:14.648Z,21.20
2023-04-26T13:50:18.087Z,23.10
2023-04-26T13:54:22.962Z,23.80
2023-04-26T13:58:27.768Z,23.70
2023-04-26T14:02:31.071Z,21.90
2023-04-26T14:06:36.177Z,20.70
2023-04-26T14:10:39.455Z,22.20
2023-04-26T14:14:46.396Z,21.40
2023-04-26T14:18:49.659Z,22.20
2023-04-26T14:22:52.871Z,20.60
2023-04-26T14:26:56.532Z,19.80
2023-04-26T14:31:01.402Z,18.40
2023-04-26T14:35:05.115Z,17.20
2023-04-26T14:39:08.392Z,17.50
2023-04-26T14:43:11.998Z,17.80
2023-04-26T14:47:17.524Z,17.70
2023-04-26T14:51:20.670Z,17.70
2023-04-26T14:55:24.132Z,17.50
2023-04-26T14:59:27.304Z,16.80
2023-04-26T15:03:32.977Z,16.60
2023-04-26T15:07:36.591Z,17.10
2023-04-26T15:11:40.130Z,17.90
2023-04-26T15:15:44.087Z,18.20
2023-04-26T15:19:49.364Z,16.90
2023-04-26T15:23:53.353Z,16.60
2023-04-26T15:27:57.599Z,16.60
2023-04-26T15:32:01.138Z,16.30
2023-04-26T15:36:07.042Z,15.70
2023-04-26T15:40:12.212Z,15.60
2023-04-26T15:44:16.248Z,15.50
2023-04-26T15:48:20.902Z,15.60
2023-04-26T15:52:25.920Z,15.60
2023-04-26T15:56:30.506Z,15.30
2023-04-26T16:00:34.326Z,15.50
2023-04-26T16:04:37.918Z,15.50
2023-04-26T16:08:43.217Z,15.30
2023-04-26T16:12:47.198Z,14.80
2023-04-26T16:16:52.108Z,14.50
2023-04-26T16:21:04.204Z,14.20
2023-04-26T16:25:09.988Z,14.00
2023-04-26T16:29:13.457Z,14.00
2023-04-26T16:33:17.087Z,14.00
2023-04-26T16:37:21.087Z,14.00
2023-04-26T16:41:28.154Z,13.80
2023-04-26T16:45:31.682Z,13.60
2023-04-26T16:49:35.067Z,13.70
2023-04-26T16:53:41.958Z,13.50
2023-04-26T16:57:46.779Z,13.40
2023-04-26T17:01:50.742Z,13.10
2023-04-26T17:05:54.189Z,13.00
2023-04-26T17:09:58.012Z,12.70
2023-04-26T17:14:04.694Z,12.50
2023-04-26T17:18:09.891Z,12.30
2023-04-26T17:22:13.286Z,12.20
2023-04-26T17:26:16.974Z,11.90
2023-04-26T17:30:22.443Z,11.70
2023-04-26T17:34:26.799Z,11.40
2023-04-26T17:38:32.817Z,11.20
2023-04-26T17:42:36.840Z,10.90
2023-04-26T17:46:42.918Z,10.60
2023-04-26T17:50:50.207Z,10.40
2023-04-26T17:54:56.978Z,10.20
2023-04-26T17:59:03.002Z,9.90
2023-04-26T18:03:10.023Z,9.70
2023-04-26T18:07:14.909Z,9.50
2023-04-26T18:11:24.835Z,9.40
2023-04-26T18:15:35.849Z,9.10
2023-04-26T18:19:49.126Z,9.20
2023-04-26T18:23:53.640Z,9.30
2023-04-26T18:27:57.990Z,9.00
2023-04-26T18:32:05.162Z,8.80
2023-04-26T18:36:10.475Z,8.60
2023-04-26T18:40:15.043Z,8.40
2023-04-26T18:44:22.227Z,8.20
2023-04-26T18:48:25.670Z,8.00
2023-04-26T18:52:32.441Z,7.90
2023-04-26T18:56:37.940Z,7.80
2023-04-26T19:00:43.154Z,7.70
2023-04-26T19:04:50.508Z,7.50
2023-04-26T19:09:04.191Z,7.30
2023-04-26T19:13:09.300Z,7.30
2023-04-26T19:17:13.987Z,7.10
2023-04-26T19:21:18.138Z,7.00
2023-04-26T19:25:27.405Z,6.90
2023-04-26T19:29:31.754Z,6.80
2023-04-26T19:33:37.467Z,6.60
2023-04-26T19:37:47.802Z,6.50
2023-04-26T19:41:53.905Z,6.40
2023-04-26T19:45:58.034Z,6.30
2023-04-26T19:50:02.033Z,6.30
2023-04-26T19:54:06.442Z,6.20
2023-04-26T19:58:15.489Z,6.10
2023-04-26T20:02:21.194Z,6.20
2023-04-26T20:06:26.671Z,6.30
2023-04-26T20:10:34.421Z,6.40
2023-04-26T20:14:43.111Z,6.50
2023-04-26T20:18:47.159Z,6.50
2023-04-26T20:22:51.646Z,6.40
2023-04-26T20:26:56.675Z,6.50
2023-04-26T20:31:07.125Z,6.40
2023-04-26T20:35:13.343Z,6.30
2023-04-26T20:39:22.545Z,6.20
2023-04-26T20:43:26.697Z,6.20
2023-04-26T20:47:31.514Z,6.20
2023-04-26T20:51:35.787Z,6.20
2023-04-26T20:55:39.710Z,6.20
2023-04-26T20:59:43.122Z,6.30
2023-04-26T21:03:48.014Z,6.40
2023-04-26T21:07:52.634Z,6.40
2023-04-26T21:11:57.303Z,6.30
2023-04-26T21:16:00.554Z,6.10
2023-04-26T21:20:07.113Z,6.00
2023-04-26T21:24:10.505Z,5.80
2023-04-26T21:28:15.503Z,5.60
2023-04-26T21:32:18.719Z,5.50
2023-04-26T21:36:23.456Z,5.50
2023-04-26T21:40:26.859Z,5.50
2023-04-26T21:44:30.314Z,5.60
2023-04-26T21:48:33.564Z,5.70
2023-04-26T21:52:38.200Z,5.70
2023-04-26T21:56:41.437Z,5.70
2023-04-26T22:00:44.846Z,5.60
2023-04-26T22:04:48.009Z,5.50
2023-04-26T22:08:52.570Z,5.50
2023-04-26T22:12:55.730Z,5.40
2023-04-26T22:16:59.123Z,5.40
2023-04-26T22:21:02.350Z,5.40
2023-04-26T22:25:08.160Z,5.50
2023-04-26T22:29:11.753Z,5.50
2023-04-26T22:33:15.309Z,5.70
2023-04-26T22:37:21.393Z,5.80
2023-04-26T22:41:26.412Z,5.80
2023-04-26T22:45:29.761Z,5.90
2023-04-26T22:49:33.007Z,6.00
2023-04-26T22:53:36.410Z,6.00
2023-04-26T22:57:41.110Z,6.10
2023-04-26T23:01:44.808Z,6.20
2023-04-26T23:05:48.586Z,6.30
2023-04-26T23:09:51.869Z,6.20
2023-04-26T23:13:56.831Z,6.20
2023-04-26T23:18:00.730Z,6.40
2023-04-26T23:22:04.055Z,6.50
2023-04-26T23:26:08.642Z,6.40
2023-04-26T23:30:14.732Z,6.20
2023-04-26T23:34:18.058Z,6.40
2023-04-26T23:38:21.401Z,6.40
2023-04-26T23:42:24.918Z,6.20
2023-04-26T23:46:29.612Z,6.30
2023-04-26T23:50:33.379Z,6.30
2023-04-26T23:54:36.582Z,6.30
2023-04-26T23:58:39.998Z,6.30
